Time;durP1;ratioP1;P1;durP2;ratioP2;P2;SDS_P1;SDS_P2;PMS_P1;PMS_P2;Temp;Humidity;BMP_temperature;BMP_pressure;BME280_temperature;BME280_humidity;BME280_pressure;Samples;Min_cycle;Max_cycle;Signal;HPM_P1;HPM_P2
2022/07/16 00:02:51;;;;;;;4.07;1.73;;;;;;;22.17;34.06;99776.47;4487073;31;34650;-59
2022/07/16 00:05:19;;;;;;;2.80;1.48;;;;;;;22.72;32.90;99778.63;4488697;31;33702;-61
2022/07/16 00:07:46;;;;;;;3.87;1.60;;;;;;;22.72;32.74;99773.16;4494545;31;34178;-60
2022/07/16 00:10:14;;;;;;;3.50;1.60;;;;;;;22.88;32.39;99769.34;4492178;31;35120;-61
2022/07/16 00:12:42;;;;;;;6.82;1.75;;;;;;;23.02;32.18;99768.50;4494328;31;34030;-60
2022/07/16 00:15:10;;;;;;;4.00;1.65;;;;;;;22.82;32.47;99766.56;4495082;31;33765;-59
2022/07/16 00:17:38;;;;;;;3.67;1.85;;;;;;;22.35;33.63;99766.03;4493698;31;32779;-62
2022/07/16 00:20:06;;;;;;;5.07;2.10;;;;;;;22.24;33.48;99769.22;4491903;31;35300;-59
2022/07/16 00:22:34;;;;;;;4.62;2.00;;;;;;;22.82;32.49;99758.38;4493815;31;33052;-59
2022/07/16 00:25:03;;;;;;;6.20;1.90;;;;;;;22.83;32.40;99765.53;4485706;31;33855;-59
2022/07/16 00:27:30;;;;;;;4.53;1.90;;;;;;;22.87;33.30;99767.69;4494375;31;32929;-60
2022/07/16 00:29:58;;;;;;;3.85;1.73;;;;;;;22.92;32.29;99767.09;4494925;31;34083;-60
2022/07/16 00:32:26;;;;;;;3.28;1.48;;;;;;;22.48;32.91;99759.91;4484324;31;35560;-59
2022/07/16 00:34:53;;;;;;;4.35;1.90;;;;;;;22.63;32.87;99763.44;4488411;31;35707;-59
2022/07/16 00:37:21;;;;;;;2.95;1.33;;;;;;;22.93;32.40;99769.66;4488985;31;33717;-61
2022/07/16 00:39:48;;;;;;;4.43;1.95;;;;;;;22.95;32.44;99764.87;4494671;31;33916;-61
2022/07/16 00:42:16;;;;;;;3.20;1.77;;;;;;;22.70;32.55;99768.97;4495051;31;33441;-60
2022/07/16 00:44:44;;;;;;;4.28;1.70;;;;;;;23.00;32.31;99767.84;4495514;31;34842;-59
2022/07/16 00:47:12;;;;;;;4.72;2.12;;;;;;;23.17;31.82;99762.97;4496275;31;34960;-60
2022/07/16 00:49:39;;;;;;;4.45;1.95;;;;;;;23.12;32.10;99770.91;4495142;31;33760;-61
2022/07/16 00:52:06;;;;;;;3.47;1.77;;;;;;;23.22;31.74;99778.78;4499843;31;33693;-60
2022/07/16 00:54:34;;;;;;;3.62;1.67;;;;;;;23.02;32.62;99773.97;4498994;31;34998;-61
2022/07/16 00:57:02;;;;;;;3.20;1.60;;;;;;;22.94;32.38;99768.62;4497274;31;33726;-59
2022/07/16 00:59:30;;;;;;;3.42;1.67;;;;;;;22.96;33.00;99769.28;4491475;31;33930;-60
2022/07/16 01:01:57;;;;;;;2.58;1.35;;;;;;;22.51;32.85;99774.00;4488434;31;34953;-59
2022/07/16 01:04:25;;;;;;;3.45;1.67;;;;;;;22.77;33.16;99776.19;4494754;31;33715;-60
2022/07/16 01:06:53;;;;;;;4.15;1.90;;;;;;;23.04;32.13;99773.75;4492317;31;34318;-61
2022/07/16 01:09:21;;;;;;;2.97;1.60;;;;;;;22.93;32.20;99772.41;4499510;31;33992;-60
2022/07/16 01:11:49;;;;;;;6.00;1.70;;;;;;;23.11;32.05;99773.81;4485258;31;32324;-59
2022/07/16 01:14:16;;;;;;;3.25;1.58;;;;;;;23.08;32.00;99768.75;4484304;31;33558;-59
2022/07/16 01:16:45;;;;;;;3.12;1.48;;;;;;;23.20;31.89;99775.38;4490505;31;35131;-62
2022/07/16 01:19:13;;;;;;;4.78;2.08;;;;;;;23.22;31.89;99779.59;4497755;31;32904;-60
2022/07/16 01:21:42;;;;;;;3.10;1.45;;;;;;;23.35;31.59;99775.31;4480020;31;33431;-60
2022/07/16 01:24:11;;;;;;;2.78;1.70;;;;;;;23.41;31.68;99774.53;4489005;31;33752;-60
2022/07/16 01:26:38;;;;;;;4.00;2.08;;;;;;;23.29;31.59;99770.63;4498592;31;34728;-60
2022/07/16 01:29:06;;;;;;;5.87;1.70;;;;;;;23.35;31.53;99770.69;4500016;31;34126;-61
2022/07/16 01:31:34;;;;;;;6.95;1.87;;;;;;;23.36;31.54;99777.84;4498619;31;34564;-61
2022/07/16 01:37:01;;;;;;;5.97;2.05;;;;;;;23.26;31.69;99774.59;4487805;31;34107;-60
2022/07/16 01:39:31;;;;;;;3.47;1.90;;;;;;;23.13;31.99;99772.59;4497037;31;34934;-62
2022/07/16 01:42:01;;;;;;;4.53;1.83;;;;;;;23.36;31.56;99775.09;4498062;31;32314;-60
2022/07/16 01:44:30;;;;;;;4.78;1.85;;;;;;;23.34;31.60;99774.47;4499457;31;34004;-62
2022/07/16 01:46:58;;;;;;;3.03;1.42;;;;;;;23.25;32.01;99770.19;4499397;31;33963;-62
2022/07/16 01:49:33;;;;;;;7.12;1.90;;;;;;;23.30;32.09;99775.03;4496189;31;33418;-60
2022/07/16 01:52:25;;;;;;;3.90;1.70;;;;;;;23.38;31.53;99767.56;4499498;31;34311;-61
2022/07/16 01:54:53;;;;;;;4.32;1.70;;;;;;;23.24;32.19;99779.41;4490124;31;34778;-62
2022/07/16 01:57:21;;;;;;;4.40;1.70;;;;;;;23.27;31.96;99783.62;4494561;31;32819;-61
2022/07/16 01:59:50;;;;;;;4.18;1.95;;;;;;;23.34;32.05;99785.41;4493244;31;32663;-61
2022/07/16 02:02:17;;;;;;;5.03;1.98;;;;;;;23.34;32.26;99784.53;4493939;31;35190;-59
2022/07/16 02:04:45;;;;;;;3.20;1.42;;;;;;;23.35;32.02;99781.63;4498679;31;34912;-60
2022/07/16 02:07:13;;;;;;;4.62;1.90;;;;;;;23.22;32.25;99776.88;4499196;31;33973;-62
2022/07/16 02:09:40;;;;;;;6.00;2.08;;;;;;;23.22;32.18;99776.03;4493158;31;34871;-60
2022/07/16 02:12:08;;;;;;;3.97;1.65;;;;;;;23.28;31.96;99780.72;4496654;31;33513;-61
2022/07/16 02:14:36;;;;;;;4.05;1.77;;;;;;;23.28;31.91;99782.59;4498010;31;32818;-61
2022/07/16 02:17:03;;;;;;;4.47;2.08;;;;;;;23.30;31.90;99781.34;4499252;31;33734;-61
2022/07/16 02:19:31;;;;;;;4.47;2.08;;;;;;;23.17;32.07;99782.06;4496384;31;33895;-62
2022/07/16 02:21:59;;;;;;;4.55;1.62;;;;;;;23.14;32.32;99776.16;4498405;31;33419;-59
2022/07/16 02:24:27;;;;;;;4.35;2.08;;;;;;;23.11;32.51;99774.66;4498932;31;33850;-59
2022/07/16 02:26:55;;;;;;;6.37;2.12;;;;;;;23.19;32.45;99784.62;4496372;31;34974;-63
2022/07/16 02:29:22;;;;;;;7.00;1.90;;;;;;;23.14;32.58;99781.63;4499408;31;35120;-60
2022/07/16 02:31:50;;;;;;;5.22;2.05;;;;;;;23.05;32.62;99777.31;4498273;31;35265;-60
2022/07/16 02:34:18;;;;;;;4.07;1.75;;;;;;;22.84;33.13;99775.41;4496283;31;33855;-60
2022/07/16 02:36:45;;;;;;;5.47;1.62;;;;;;;22.92;33.09;99778.88;4499064;31;35186;-64
2022/07/16 02:39:13;;;;;;;3.58;1.70;;;;;;;22.96;33.21;99780.19;4498602;31;33862;-61
2022/07/16 02:41:41;;;;;;;4.37;1.70;;;;;;;22.94;33.02;99770.50;4496285;31;33764;-62
2022/07/16 02:44:08;;;;;;;3.72;1.55;;;;;;;22.79;33.39;99770.50;4493163;31;33474;-61
2022/07/16 02:46:36;;;;;;;4.62;2.10;;;;;;;22.63;33.65;99777.09;4497622;31;34263;-60
2022/07/16 02:49:04;;;;;;;4.62;2.17;;;;;;;22.59;33.67;99780.37;4498904;31;34177;-60
2022/07/16 02:51:31;;;;;;;5.07;2.20;;;;;;;22.67;33.60;99780.28;4497857;31;32316;-61
2022/07/16 02:53:58;;;;;;;3.80;1.77;;;;;;;22.68;33.56;99790.13;4498475;31;35078;-60
2022/07/16 02:56:26;;;;;;;5.65;2.03;;;;;;;22.59;33.52;99786.66;4498822;31;35024;-61
2022/07/16 02:58:54;;;;;;;4.03;1.83;;;;;;;22.55;33.58;99783.47;4486307;31;33568;-61
2022/07/16 03:01:22;;;;;;;4.35;1.83;;;;;;;22.54;33.59;99791.88;4497348;31;34572;-62
2022/07/16 03:03:50;;;;;;;5.57;2.22;;;;;;;22.50;33.64;99791.41;4496775;31;33751;-63
2022/07/16 03:06:18;;;;;;;3.30;1.95;;;;;;;22.49;33.69;99791.59;4498804;31;33949;-62
2022/07/16 03:08:46;;;;;;;4.28;2.05;;;;;;;22.32;34.05;99793.69;4498839;31;32913;-60
2022/07/16 03:11:15;;;;;;;3.55;1.83;;;;;;;22.46;33.84;99792.81;4498194;31;34631;-61
2022/07/16 03:13:42;;;;;;;5.55;2.22;;;;;;;22.45;33.78;99791.12;4495719;31;33843;-60
2022/07/16 03:16:10;;;;;;;5.57;1.83;;;;;;;22.42;34.16;99791.50;4497524;31;33860;-60
2022/07/16 03:18:38;;;;;;;6.40;2.40;;;;;;;22.36;34.10;99797.72;4498904;31;33746;-61
2022/07/16 03:21:06;;;;;;;4.35;1.95;;;;;;;22.39;33.89;99797.34;4496769;31;33412;-61
2022/07/16 03:23:33;;;;;;;5.43;2.17;;;;;;;22.42;33.82;99802.41;4499770;31;33845;-61
2022/07/16 03:26:01;;;;;;;6.65;2.15;;;;;;;22.28;34.03;99804.13;4496760;31;33989;-59
2022/07/16 03:28:28;;;;;;;4.37;1.95;;;;;;;22.33;34.10;99798.94;4495660;31;33944;-63
2022/07/16 03:30:56;;;;;;;4.47;1.58;;;;;;;22.30;34.24;99801.19;4497587;31;33463;-63
2022/07/16 03:33:24;;;;;;;4.30;1.67;;;;;;;22.30;34.31;99812.09;4496169;31;33596;-61
2022/07/16 03:35:51;;;;;;;4.22;1.90;;;;;;;22.28;34.35;99814.19;4498112;31;34020;-61
2022/07/16 03:41:05;;;;;;;5.18;2.33;;;;;;;22.05;34.81;99812.38;4496535;31;33631;-60
2022/07/16 03:43:33;;;;;;;4.40;2.10;;;;;;;22.00;34.98;99816.69;4498191;31;33865;-62
2022/07/16 03:46:00;;;;;;;6.93;2.12;;;;;;;21.99;34.94;99817.69;4497768;31;32860;-62
2022/07/16 03:48:28;;;;;;;6.12;1.83;;;;;;;21.92;35.04;99814.03;4498320;31;33971;-61
2022/07/16 03:50:56;;;;;;;6.90;1.92;;;;;;;21.89;35.17;99820.69;4496166;31;33230;-60
2022/07/16 03:53:23;;;;;;;4.87;2.35;;;;;;;21.90;35.36;99821.56;4497307;31;34894;-63
2022/07/16 03:55:51;;;;;;;4.37;1.90;;;;;;;21.94;35.35;99820.16;4497487;31;33601;-60
2022/07/16 03:58:18;;;;;;;6.70;2.28;;;;;;;21.99;35.36;99820.41;4497131;31;32936;-63
2022/07/16 04:00:46;;;;;;;4.50;2.12;;;;;;;21.98;35.36;99825.03;4497278;31;34428;-60
2022/07/16 04:03:14;;;;;;;3.95;2.00;;;;;;;22.01;35.29;99827.38;4497054;31;34231;-63
2022/07/16 04:05:41;;;;;;;7.00;2.10;;;;;;;22.00;35.51;99820.25;4490819;31;35565;-59
2022/07/16 04:08:09;;;;;;;6.95;2.50;;;;;;;22.03;35.26;99819.88;4495687;31;34197;-61
2022/07/16 04:10:37;;;;;;;4.90;2.12;;;;;;;21.95;35.51;99810.94;4493639;31;32948;-60
2022/07/16 04:13:05;;;;;;;5.10;2.22;;;;;;;21.98;35.83;99824.19;4499180;31;34941;-60
2022/07/16 04:15:32;;;;;;;6.22;2.17;;;;;;;21.92;36.35;99816.75;4499363;31;32450;-60
2022/07/16 04:18:00;;;;;;;3.37;1.80;;;;;;;22.08;36.01;99828.31;4499363;31;34943;-60
2022/07/16 04:20:28;;;;;;;5.10;2.20;;;;;;;22.17;36.41;99831.00;4497365;31;33396;-61
2022/07/16 04:22:55;;;;;;;4.18;2.35;;;;;;;22.43;35.72;99822.34;4495587;31;34699;-62
2022/07/16 04:25:23;;;;;;;4.35;1.90;;;;;;;22.55;35.23;99820.81;4493791;31;32701;-60
2022/07/16 04:27:51;;;;;;;3.92;1.85;;;;;;;22.60;34.82;99828.41;4498641;31;34424;-61
2022/07/16 04:30:18;;;;;;;4.72;2.03;;;;;;;22.59;34.88;99827.56;4493661;31;34431;-63
2022/07/16 04:32:46;;;;;;;4.37;1.98;;;;;;;22.64;34.30;99824.28;4485144;31;33475;-62
2022/07/16 04:35:14;;;;;;;4.80;1.92;;;;;;;22.64;34.32;99825.13;4498137;31;33613;-60
2022/07/16 04:37:43;;;;;;;7.80;2.17;;;;;;;22.73;34.50;99825.87;4500125;31;32755;-63
2022/07/16 04:40:12;;;;;;;4.43;2.10;;;;;;;22.84;34.33;99830.81;4497255;31;32459;-60
2022/07/16 04:42:40;;;;;;;5.80;2.00;;;;;;;22.76;35.05;99829.06;4498574;31;33687;-61
2022/07/16 04:45:09;;;;;;;5.05;2.17;;;;;;;23.00;34.33;99825.16;4484946;32;32410;-60
2022/07/16 04:47:38;;;;;;;3.90;1.92;;;;;;;23.11;33.80;99817.50;4499393;31;33811;-62
2022/07/16 04:50:07;;;;;;;3.15;1.67;;;;;;;23.33;33.80;99818.34;4497508;31;34592;-60
2022/07/16 04:52:34;;;;;;;3.42;1.70;;;;;;;23.31;33.98;99821.28;4497958;31;32624;-62
2022/07/16 04:55:03;;;;;;;4.95;1.98;;;;;;;23.14;34.09;99825.31;4500671;31;34788;-66
2022/07/16 04:57:30;;;;;;;4.55;2.12;;;;;;;23.42;33.68;99822.62;4493855;31;33038;-60
2022/07/16 04:59:58;;;;;;;4.22;1.92;;;;;;;23.12;34.17;99827.41;4499690;31;33074;-61
2022/07/16 05:05:12;;;;;;;4.25;1.87;;;;;;;23.36;33.52;99824.25;4500172;31;33648;-61
2022/07/16 05:07:40;;;;;;;4.00;2.10;;;;;;;23.47;33.50;99825.63;4497942;31;33903;-60
2022/07/16 05:10:08;;;;;;;6.20;2.15;;;;;;;23.42;33.57;99823.47;4499853;31;33537;-60
2022/07/16 05:12:36;;;;;;;3.92;1.70;;;;;;;23.37;33.47;99828.69;4497033;31;33422;-61
2022/07/16 05:15:04;;;;;;;5.03;1.90;;;;;;;23.54;33.06;99831.16;4488920;31;30873;-61
2022/07/16 05:17:32;;;;;;;4.95;1.80;;;;;;;23.31;33.60;99831.38;4496414;31;34158;-60
2022/07/16 05:19:59;;;;;;;4.00;1.58;;;;;;;23.34;33.62;99829.09;4500210;31;33418;-61
2022/07/16 05:22:27;;;;;;;4.03;1.80;;;;;;;22.85;33.94;99843.41;4499002;31;32665;-62
2022/07/16 05:24:55;;;;;;;4.75;1.73;;;;;;;23.21;33.71;99835.28;4498919;31;33960;-60
2022/07/16 05:27:23;;;;;;;4.85;1.80;;;;;;;23.81;33.18;99834.97;4498505;31;32944;-59
2022/07/16 05:29:51;;;;;;;3.47;1.80;;;;;;;23.45;33.08;99830.44;4490696;31;33225;-61
2022/07/16 05:32:18;;;;;;;5.28;1.75;;;;;;;23.81;32.67;99833.09;4492812;31;33474;-61
2022/07/16 05:34:46;;;;;;;4.62;1.83;;;;;;;23.90;32.91;99834.63;4496806;31;34154;-63
2022/07/16 05:37:13;;;;;;;7.05;2.17;;;;;;;23.68;32.64;99841.16;4499268;31;34108;-61
2022/07/16 05:39:41;;;;;;;4.45;2.03;;;;;;;23.92;32.80;99834.44;4499907;31;33502;-61
2022/07/16 05:42:09;;;;;;;3.50;1.77;;;;;;;24.08;32.66;99839.59;4500002;31;33864;-60
2022/07/16 05:44:36;;;;;;;5.45;1.90;;;;;;;23.84;32.66;99835.41;4498716;31;35259;-61
2022/07/16 05:47:04;;;;;;;4.57;1.70;;;;;;;24.01;32.10;99835.13;4497716;31;34430;-60
2022/07/16 05:49:32;;;;;;;3.95;1.65;;;;;;;24.24;32.37;99829.38;4492914;31;32150;-61
2022/07/16 05:52:07;;;;;;;3.50;1.65;;;;;;;24.46;31.87;99838.38;4493234;31;35161;-61
2022/07/16 05:54:34;;;;;;;4.80;2.20;;;;;;;24.11;31.92;99847.41;4500195;31;33955;-61
2022/07/16 05:57:02;;;;;;;4.10;1.65;;;;;;;23.72;32.32;99845.19;4486389;31;32735;-63
2022/07/16 05:59:29;;;;;;;3.72;1.50;;;;;;;24.10;32.24;99837.50;4493844;31;34805;-62
2022/07/16 06:01:57;;;;;;;4.75;1.80;;;;;;;24.25;31.88;99840.13;4497189;31;32175;-60
2022/07/16 06:04:25;;;;;;;6.80;1.90;;;;;;;24.32;31.68;99837.41;4486617;31;33908;-62
2022/07/16 06:06:52;;;;;;;3.50;1.75;;;;;;;23.58;33.31;99837.91;4495898;31;32950;-61
2022/07/16 06:09:20;;;;;;;4.03;1.83;;;;;;;24.16;32.47;99852.25;4497299;31;33688;-60
2022/07/16 06:11:48;;;;;;;4.15;1.92;;;;;;;24.36;32.56;99842.28;4498124;31;33652;-60
2022/07/16 06:14:15;;;;;;;4.80;2.00;;;;;;;23.78;32.89;99843.56;4496865;31;34034;-63
2022/07/16 06:16:43;;;;;;;3.83;1.80;;;;;;;24.31;32.26;99842.06;4495188;31;34053;-62
2022/07/16 06:19:11;;;;;;;4.15;1.85;;;;;;;24.24;32.61;99846.66;4497296;31;33290;-63
2022/07/16 06:21:38;;;;;;;4.18;1.80;;;;;;;23.97;32.63;99844.78;4497118;31;34109;-61
2022/07/16 06:24:06;;;;;;;4.00;2.00;;;;;;;23.99;32.32;99845.44;4496622;31;33806;-60
2022/07/16 06:26:34;;;;;;;4.30;1.73;;;;;;;23.68;33.19;99849.34;4497739;31;35206;-60
2022/07/16 06:29:01;;;;;;;3.03;1.60;;;;;;;23.76;32.87;99857.44;4496514;31;34679;-60
2022/07/16 06:31:29;;;;;;;4.07;1.60;;;;;;;23.35;33.59;99857.25;4498655;31;34799;-63
2022/07/16 06:33:57;;;;;;;4.85;1.80;;;;;;;23.92;33.31;99859.03;4494183;31;33824;-61
2022/07/16 06:36:24;;;;;;;4.00;2.08;;;;;;;24.10;32.90;99856.63;4497193;31;34310;-60
2022/07/16 06:38:52;;;;;;;4.78;1.85;;;;;;;23.69;33.51;99865.59;4491765;31;33763;-60
2022/07/16 06:41:20;;;;;;;3.87;2.03;;;;;;;23.92;33.25;99861.78;4498567;31;33746;-60
2022/07/16 06:43:48;;;;;;;5.43;1.77;;;;;;;24.17;32.52;99865.75;4498409;31;35340;-61
2022/07/16 06:46:15;;;;;;;5.20;1.70;;;;;;;24.13;32.58;99869.06;4495123;31;33119;-61
2022/07/16 06:48:43;;;;;;;4.68;2.00;;;;;;;24.48;32.08;99866.38;4493802;31;33512;-62
2022/07/16 06:51:12;;;;;;;2.80;1.70;;;;;;;24.33;31.78;99861.84;4497069;31;33679;-62
2022/07/16 06:53:40;;;;;;;4.47;1.80;;;;;;;24.09;32.16;99865.88;4496376;31;33859;-64
2022/07/16 06:56:08;;;;;;;6.05;2.03;;;;;;;24.32;31.88;99859.31;4494049;31;33931;-60
2022/07/16 06:58:36;;;;;;;5.37;2.00;;;;;;;24.11;33.51;99854.78;4490028;31;33310;-61
2022/07/16 07:01:05;;;;;;;5.80;1.90;;;;;;;24.68;32.78;99855.53;4497775;31;34943;-59
2022/07/16 07:03:32;;;;;;;3.72;1.42;;;;;;;24.17;32.61;99859.41;4493332;31;33420;-60
2022/07/16 07:06:00;;;;;;;5.78;1.67;;;;;;;24.98;31.68;99859.66;4494850;31;34021;-61
2022/07/16 07:08:28;;;;;;;3.87;2.00;;;;;;;24.40;32.28;99856.41;4491428;31;34801;-60
2022/07/16 07:10:55;;;;;;;5.55;1.87;;;;;;;24.22;32.96;99850.63;4496869;31;33741;-60
2022/07/16 07:13:23;;;;;;;3.67;1.98;;;;;;;25.00;31.88;99856.69;4498780;31;34093;-62
2022/07/16 07:15:51;;;;;;;4.53;1.73;;;;;;;25.14;31.00;99849.41;4496269;31;35248;-60
2022/07/16 07:18:18;;;;;;;5.25;1.90;;;;;;;25.09;31.16;99858.19;4495617;31;33237;-60
2022/07/16 07:20:56;;;;;;;4.57;2.10;;;;;;;24.91;30.73;99857.94;4494650;31;34955;-59
2022/07/16 07:23:24;;;;;;;4.47;1.62;;;;;;;24.86;31.78;99859.41;4497526;31;35207;-61
2022/07/16 07:25:51;;;;;;;4.25;1.77;;;;;;;25.13;31.09;99859.50;4491120;31;33747;-61
2022/07/16 07:28:19;;;;;;;5.68;2.15;;;;;;;24.89;31.10;99860.88;4497044;31;34770;-61
2022/07/16 07:30:47;;;;;;;3.20;1.50;;;;;;;24.37;32.50;99854.09;4497736;31;35036;-60
2022/07/16 07:33:14;;;;;;;3.33;1.60;;;;;;;24.86;31.17;99859.41;4497537;31;34918;-63
2022/07/16 07:35:42;;;;;;;3.03;1.42;;;;;;;25.05;30.42;99851.47;4499394;31;34282;-61
2022/07/16 07:38:10;;;;;;;6.97;2.03;;;;;;;24.88;31.14;99853.72;4494426;31;34381;-60
2022/07/16 07:40:45;;;;;;;;;;;;;;;25.49;30.81;99850.94;4496272;31;33952;-60
2022/07/16 07:43:12;;;;;;;4.22;1.80;;;;;;;25.14;30.15;99853.00;4496480;31;34816;-60
2022/07/16 07:45:40;;;;;;;4.68;1.80;;;;;;;25.13;29.64;99853.19;4498252;31;35337;-61
2022/07/16 07:48:08;;;;;;;5.15;1.80;;;;;;;25.25;29.25;99852.38;4497084;31;33329;-60
2022/07/16 07:50:36;;;;;;;5.68;2.15;;;;;;;25.29;28.88;99856.37;4497960;31;32146;-61
2022/07/16 07:53:03;;;;;;;4.32;1.60;;;;;;;25.68;28.10;99852.03;4498684;31;33763;-60
2022/07/16 07:55:32;;;;;;;3.72;1.52;;;;;;;25.03;29.24;99848.91;4484694;31;33461;-63
2022/07/16 07:58:00;;;;;;;3.95;1.85;;;;;;;25.50;28.58;99860.00;4488562;31;33546;-62
2022/07/16 08:00:27;;;;;;;3.30;1.60;;;;;;;25.45;27.88;99844.19;4490745;31;33926;-62
2022/07/16 08:02:56;;;;;;;6.25;1.80;;;;;;;24.99;28.69;99849.53;4496975;31;33516;-61
2022/07/16 08:05:24;;;;;;;4.53;1.45;;;;;;;25.53;28.03;99844.00;4494801;31;34614;-61
2022/07/16 08:07:52;;;;;;;3.33;1.75;;;;;;;25.43;27.76;99835.34;4496110;31;32061;-63
2022/07/16 08:10:20;;;;;;;3.37;1.50;;;;;;;25.55;28.83;99835.53;4491950;31;34192;-62
2022/07/16 08:12:48;;;;;;;4.90;1.95;;;;;;;25.26;28.30;99842.25;4483597;31;32568;-60
2022/07/16 08:15:15;;;;;;;5.60;2.22;;;;;;;25.49;28.34;99844.59;4499264;31;33672;-59
2022/07/16 08:17:43;;;;;;;4.07;1.52;;;;;;;25.79;28.30;99831.34;4488295;31;31528;-60
2022/07/16 08:20:11;;;;;;;4.93;1.87;;;;;;;25.39;27.37;99834.06;4491271;31;33893;-63
2022/07/16 08:22:39;;;;;;;2.97;1.35;;;;;;;25.85;26.74;99827.78;4498661;31;33784;-63
2022/07/16 08:27:54;;;;;;;5.15;1.95;;;;;;;26.45;26.80;99830.41;4495412;31;33460;-64
2022/07/16 08:30:22;;;;;;;3.12;1.60;;;;;;;26.08;27.13;99829.25;4496257;31;33806;-60
2022/07/16 08:32:50;;;;;;;4.50;1.85;;;;;;;26.36;26.72;99831.72;4497972;31;32979;-63
2022/07/16 08:35:18;;;;;;;5.03;1.80;;;;;;;26.11;26.72;99831.56;4494685;31;34338;-61
2022/07/16 08:37:46;;;;;;;8.73;1.70;;;;;;;26.74;26.01;99834.53;4486849;31;34002;-63
2022/07/16 08:40:20;;;;;;;5.28;1.65;;;;;;;26.63;25.39;99827.84;4484690;31;33986;-62
2022/07/16 08:42:49;;;;;;;5.72;3.00;;;;;;;26.23;26.15;99825.19;4496213;31;34006;-63
2022/07/16 08:45:19;;;;;;;3.78;1.50;;;;;;;26.92;25.78;99822.84;4493490;31;35127;-61
2022/07/16 08:47:46;;;;;;;4.28;1.42;;;;;;;26.43;25.80;99829.78;4487390;31;32044;-61
2022/07/16 08:50:15;;;;;;;4.53;1.77;;;;;;;27.00;25.26;99828.09;4494062;31;33604;-62
2022/07/16 08:52:47;;;;;;;3.97;1.65;;;;;;;27.14;25.46;99823.38;4486623;31;32643;-60
2022/07/16 08:55:15;;;;;;;2.78;1.60;;;;;;;26.75;24.96;99827.16;4495952;31;34193;-62
2022/07/16 08:57:48;;;;;;;5.80;1.77;;;;;;;26.98;25.33;99823.88;4497588;31;33506;-62
2022/07/16 09:00:17;;;;;;;5.25;1.80;;;;;;;27.07;25.12;99828.06;4499118;31;35211;-63
2022/07/16 09:02:45;;;;;;;4.93;2.00;;;;;;;27.09;25.21;99823.16;4495118;31;33914;-63
2022/07/16 09:05:13;;;;;;;3.22;1.67;;;;;;;27.26;25.28;99821.62;4491583;31;33019;-63
2022/07/16 09:07:41;;;;;;;3.60;1.90;;;;;;;27.32;25.28;99822.62;4491917;31;32246;-62
2022/07/16 09:10:09;;;;;;;3.78;1.77;;;;;;;26.77;26.24;99816.78;4486429;31;33828;-62
2022/07/16 09:12:41;;;;;;;4.18;1.98;;;;;;;27.07;25.22;99823.41;4492835;31;34042;-61
2022/07/16 09:15:24;;;;;;;6.93;2.05;;;;;;;27.53;24.29;99814.00;4496824;31;35006;-61
2022/07/16 09:18:21;;;;;;;4.32;1.90;;;;;;;27.89;24.22;99815.22;4482531;31;33335;-61
2022/07/16 09:21:00;;;;;;;5.25;1.77;;;;;;;28.05;23.72;99814.62;4485416;31;33816;-60
2022/07/16 09:23:37;;;;;;;6.55;2.20;;;;;;;27.84;23.87;99804.06;4494800;31;35030;-60
2022/07/16 09:26:09;;;;;;;4.05;1.83;;;;;;;27.93;23.70;99807.34;4492620;31;33808;-64
2022/07/16 09:28:44;;;;;;;3.85;1.87;;;;;;;28.51;23.20;99813.31;4494517;31;35008;-62
2022/07/16 09:31:31;;;;;;;5.30;1.83;;;;;;;28.66;22.43;99809.31;4495196;31;34578;-64
2022/07/16 09:34:06;;;;;;;4.18;1.60;;;;;;;28.69;22.92;99798.66;4494088;31;32455;-61
2022/07/16 09:36:35;;;;;;;4.20;1.67;;;;;;;28.64;23.49;99800.47;4480829;31;31508;-64
2022/07/16 09:39:05;;;;;;;4.53;1.73;;;;;;;28.55;23.28;99803.53;4482034;31;33516;-61
2022/07/16 09:41:44;;;;;;;5.47;2.08;;;;;;;28.34;24.06;99804.78;4481880;32;33999;-62
2022/07/16 09:44:33;;;;;;;4.82;2.37;;;;;;;28.36;23.31;99796.31;4486496;31;35054;-60
2022/07/16 09:47:09;;;;;;;3.53;1.65;;;;;;;28.49;23.56;99800.84;4489193;31;33778;-65
2022/07/16 09:49:39;;;;;;;4.78;1.90;;;;;;;28.86;23.49;99801.66;4491853;31;31730;-62
2022/07/16 09:52:08;;;;;;;5.60;2.05;;;;;;;29.11;22.27;99795.16;4496641;31;33570;-63
2022/07/16 09:54:37;;;;;;;7.87;2.58;;;;;;;28.62;23.19;99791.59;4479368;31;33614;-61
2022/07/16 09:57:07;;;;;;;4.55;1.70;;;;;;;28.19;23.51;99798.84;4490872;31;35119;-61
2022/07/16 09:59:36;;;;;;;4.03;1.70;;;;;;;28.61;23.19;99803.69;4485721;31;31726;-61
2022/07/16 10:02:24;;;;;;;4.03;1.80;;;;;;;28.69;22.88;99793.16;4487862;31;33328;-61
2022/07/16 10:04:52;;;;;;;3.65;1.70;;;;;;;29.59;22.00;99788.69;4494325;31;33916;-61
2022/07/16 10:07:19;;;;;;;3.55;1.90;;;;;;;29.31;22.96;99789.34;4496257;31;32852;-64
2022/07/16 10:09:47;;;;;;;4.72;2.10;;;;;;;29.50;22.86;99793.69;4493856;31;32407;-61
2022/07/16 10:12:18;;;;;;;6.55;1.87;;;;;;;29.60;23.29;99787.59;4494988;31;32749;-61
2022/07/16 10:14:48;;;;;;;5.15;1.92;;;;;;;29.85;22.48;99779.97;4491048;31;34349;-61
2022/07/16 10:17:38;;;;;;;4.10;1.80;;;;;;;29.94;22.53;99786.78;4495959;31;34233;-61
2022/07/16 10:20:11;;;;;;;3.60;1.77;;;;;;;30.13;22.22;99776.47;4481361;31;32294;-61
2022/07/16 10:22:42;;;;;;;4.18;1.70;;;;;;;30.57;22.36;99773.28;4486538;31;33515;-61
2022/07/16 10:25:14;;;;;;;4.05;2.00;;;;;;;30.17;22.04;99774.88;4487088;31;33513;-60
2022/07/16 10:27:44;;;;;;;5.75;2.00;;;;;;;30.32;21.95;99759.78;4482500;31;33390;-64
2022/07/16 10:30:22;;;;;;;4.53;1.80;;;;;;;30.57;22.22;99765.84;4495585;31;33419;-61
2022/07/16 10:32:59;;;;;;;3.87;1.77;;;;;;;30.85;22.30;99754.00;4495669;31;34698;-61
2022/07/16 10:35:30;;;;;;;4.15;2.00;;;;;;;30.44;21.94;99762.53;4493109;31;33641;-63
2022/07/16 10:38:05;;;;;;;4.70;1.80;;;;;;;30.64;22.46;99755.47;4495053;31;33982;-62
2022/07/16 10:41:13;;;;;;;5.03;2.00;;;;;;;30.27;22.84;99752.22;4488176;31;33220;-60
2022/07/16 10:43:42;;;;;;;3.65;1.85;;;;;;;30.86;21.52;99749.31;4480676;31;33401;-61
2022/07/16 10:46:11;;;;;;;4.80;1.80;;;;;;;30.29;22.78;99744.53;4486168;31;32954;-61
2022/07/16 10:48:39;;;;;;;3.67;1.60;;;;;;;30.82;21.91;99729.63;4494358;31;32829;-62
2022/07/16 10:51:22;;;;;;;6.12;2.60;;;;;;;29.14;24.06;99734.06;4495363;31;34355;-63
2022/07/16 10:53:56;;;;;;;5.00;2.30;;;;;;;30.15;23.60;99737.59;4496835;31;31382;-61
2022/07/16 10:56:40;;;;;;;6.35;1.95;;;;;;;30.39;23.27;99735.63;4490502;31;33778;-62
2022/07/16 10:59:10;;;;;;;6.40;1.90;;;;;;;30.51;23.14;99735.59;4493618;31;34091;-61
2022/07/16 11:01:40;;;;;;;4.43;1.83;;;;;;;30.71;22.22;99733.22;4484758;31;33722;-61
2022/07/16 11:04:09;;;;;;;5.82;1.90;;;;;;;31.07;22.03;99728.38;4495826;31;32592;-61
2022/07/16 11:06:39;;;;;;;7.70;2.28;;;;;;;31.37;21.38;99724.53;4497210;31;32834;-61
2022/07/16 11:09:08;;;;;;;4.55;1.98;;;;;;;31.23;22.93;99712.91;4493832;31;34905;-62
2022/07/16 11:11:40;;;;;;;2.85;1.58;;;;;;;31.29;22.31;99712.72;4492398;31;33629;-64
2022/07/16 11:14:09;;;;;;;4.20;2.20;;;;;;;31.42;21.73;99713.53;4495344;31;33747;-62
2022/07/16 11:16:48;;;;;;;7.75;2.55;;;;;;;31.18;22.26;99726.66;4486253;31;33874;-61
2022/07/16 11:19:16;;;;;;;5.65;2.12;;;;;;;30.26;22.75;99717.44;4488886;31;32683;-62
2022/07/16 11:21:56;;;;;;;5.75;2.10;;;;;;;30.60;22.87;99726.69;4495286;31;33541;-63
2022/07/16 11:24:25;;;;;;;5.87;2.37;;;;;;;30.97;21.90;99712.47;4495197;31;33709;-61
2022/07/16 11:26:53;;;;;;;4.12;1.90;;;;;;;31.50;21.94;99715.88;4492498;31;34657;-63
2022/07/16 11:29:23;;;;;;;4.45;2.08;;;;;;;31.55;21.34;99713.16;4489464;31;34383;-62
2022/07/16 11:31:52;;;;;;;6.10;2.00;;;;;;;31.56;21.64;99717.63;4491207;31;32978;-62
2022/07/16 11:34:24;;;;;;;15.15;2.05;;;;;;;31.67;21.12;99719.44;4495269;31;35209;-63
2022/07/16 11:36:54;;;;;;;4.68;1.92;;;;;;;31.31;21.56;99716.09;4493007;31;35070;-63
2022/07/16 11:39:23;;;;;;;4.68;2.17;;;;;;;31.17;22.48;99723.03;4489462;31;33673;-65
2022/07/16 11:41:56;;;;;;;4.93;1.77;;;;;;;30.96;22.05;99719.09;4494120;31;32183;-61
2022/07/16 11:44:29;;;;;;;7.03;2.20;;;;;;;31.10;22.05;99720.44;4494303;31;33885;-61
2022/07/16 11:47:06;;;;;;;5.28;2.00;;;;;;;31.26;21.87;99716.00;4495097;31;33681;-63
2022/07/16 11:49:37;;;;;;;4.85;2.00;;;;;;;31.06;22.10;99712.91;4495472;31;32613;-64
2022/07/16 11:52:24;;;;;;;6.35;1.85;;;;;;;31.20;22.06;99708.72;4481757;31;32136;-64
2022/07/16 11:54:56;;;;;;;3.97;2.08;;;;;;;31.41;21.70;99706.31;4495841;31;32796;-62
2022/07/16 11:57:25;;;;;;;4.37;2.12;;;;;;;31.38;21.80;99696.59;4490694;31;33581;-62